| time (UTC) | temp F | wind direction | speed knots | gust knots | rain 1hr in | rain 24hr in | rain mn in | humidity % | barometer mb |
| 20260502160318 | 59 | 222 | 3.5 | 4.3 | 0.00 | 0.00 | 0.00 | 40 | 1017.2 |
| 20260502152247 | 58 | 278 | 2.6 | 2.6 | 0.00 | 0.00 | 0.00 | 39 | 1017.5 |
| 20260502151744 | 57 | 297 | 4.3 | 7.0 | 0.00 | 0.00 | 0.00 | 39 | 1017.9 |
| 20260502151241 | 57 | 297 | 2.6 | 2.6 | 0.00 | 0.00 | 0.00 | 40 | 1017.9 |
| 20260502150739 | 57 | 283 | 3.5 | 4.3 | 0.00 | 0.00 | 0.00 | 39 | 1017.9 |
| 20260502150236 | 57 | 269 | 1.7 | 1.7 | 0.00 | 0.00 | 0.00 | 41 | 1017.9 |
| 20260502130624 | 48 | 328 | 0.9 | 0.9 | 0.00 | 0.00 | 0.00 | 53 | 1019.0 |
| 20260502130122 | 47 | 318 | 0.0 | 0.0 | 0.00 | 0.00 | 0.00 | 53 | 1019.0 |
| 20260502123607 | 44 | 254 | 1.7 | 1.7 | 0.00 | 0.00 | 0.00 | 57 | 1018.6 |
| 20260502123104 | 44 | 242 | 1.7 | 1.7 | 0.00 | 0.00 | 0.00 | 56 | 1018.6 |
| 20260502122600 | 43 | 240 | 1.7 | 1.7 | 0.00 | 0.00 | 0.00 | 57 | 1019.0 |
| 20260502122057 | 43 | 310 | 0.9 | 0.9 | 0.00 | 0.00 | 0.00 | 57 | 1018.6 |
| 20260502121555 | 42 | 201 | 2.6 | 5.2 | 0.00 | 0.00 | 0.00 | 58 | 1019.0 |
| 20260502121052 | 42 | 244 | 0.9 | 0.9 | 0.00 | 0.00 | 0.00 | 58 | 1019.0 |
| 20260502120548 | 41 | 248 | 1.7 | 1.7 | 0.00 | 0.00 | 0.00 | 60 | 1018.6 |
| 20260502115544 | 40 | 315 | 0.0 | 0.9 | 0.00 | 0.00 | 0.00 | 63 | 1019.3 |
| 20260502115039 | 39 | 313 | 0.0 | 0.0 | 0.00 | 0.00 | 0.00 | 64 | 1019.0 |
| 20260502114536 | 39 | 298 | 0.0 | 0.9 | 0.00 | 0.00 | 0.00 | 65 | 1019.0 |
| 20260502114033 | 38 | 311 | 0.0 | 0.0 | 0.00 | 0.00 | 0.00 | 65 | 1019.0 |
| 20260502113531 | 38 | 310 | 0.0 | 0.0 | 0.00 | 0.00 | 0.00 | 66 | 1019.0 |
| 20260502113029 | 38 | 308 | 0.0 | 0.0 | 0.00 | 0.00 | 0.00 | 66 | 1019.0 |
| 20260502112526 | 37 | 306 | 0.9 | 1.7 | 0.00 | 0.00 | 0.00 | 67 | 1019.0 |
| 20260502112024 | 37 | 302 | 0.0 | 0.0 | 0.00 | 0.00 | 0.00 | 67 | 1019.0 |
| 20260502111521 | 37 | 294 | 0.0 | 0.9 | 0.00 | 0.00 | 0.00 | 66 | 1019.0 |
| 20260502111018 | 37 | 283 | 1.7 | 1.7 | 0.00 | 0.00 | 0.00 | 67 | 1019.3 |
| 20260502110515 | 37 | 306 | 0.9 | 0.9 | 0.00 | 0.00 | 0.00 | 67 | 1019.3 |
| 20260502110013 | 37 | 309 | 0.9 | 0.9 | 0.00 | 0.00 | 0.00 | 67 | 1019.3 |
| 20260502105510 | 37 | 308 | 0.0 | 0.9 | 0.00 | 0.00 | 0.00 | 68 | 1019.3 |
| 20260502105008 | 37 | 307 | 0.0 | 0.0 | 0.00 | 0.00 | 0.00 | 67 | 1019.0 |
| 20260502104505 | 37 | 296 | 0.9 | 0.9 | 0.00 | 0.00 | 0.00 | 67 | 1019.3 |
| 20260502104002 | 36 | 310 | 0.0 | 0.9 | 0.00 | 0.00 | 0.00 | 69 | 1019.3 |
| 20260502103459 | 36 | 310 | 0.0 | 0.0 | 0.00 | 0.00 | 0.00 | 70 | 1019.3 |
| 20260502102956 | 36 | 309 | 0.0 | 0.0 | 0.00 | 0.00 | 0.00 | 70 | 1019.3 |
| 20260502102453 | 37 | 308 | 0.0 | 0.0 | 0.00 | 0.00 | 0.00 | 69 | 1019.3 |
| 20260502101950 | 38 | 306 | 0.0 | 0.0 | 0.00 | 0.00 | 0.00 | 67 | 1019.3 |
| 20260502101449 | 38 | 303 | 0.0 | 0.0 | 0.00 | 0.00 | 0.00 | 67 | 1019.3 |
| 20260502100947 | 38 | 298 | 0.0 | 0.0 | 0.00 | 0.00 | 0.00 | 67 | 1019.3 |
| 20260502100445 | 38 | 285 | 0.0 | 0.0 | 0.00 | 0.00 | 0.00 | 66 | 1019.3 |
| 20260502091420 | 38 | 307 | 0.0 | 0.9 | 0.00 | 0.00 | 0.00 | 67 | 1019.6 |
| 20260502090916 | 38 | 312 | 0.0 | 0.9 | 0.00 | 0.00 | 0.00 | 67 | 1019.3 |
| 20260502090414 | 38 | 311 | 0.0 | 0.9 | 0.00 | 0.00 | 0.00 | 67 | 1019.3 |
| 20260502071308 | 38 | 319 | 0.0 | 0.0 | 0.00 | 0.00 | 0.00 | 68 | 1019.3 |
| 20260502070807 | 38 | 319 | 0.0 | 0.0 | 0.00 | 0.00 | 0.00 | 68 | 1019.6 |
| 20260502070304 | 37 | 319 | 0.0 | 0.0 | 0.00 | 0.00 | 0.00 | 69 | 1019.6 |
| 20260502065803 | 37 | 319 | 0.0 | 0.0 | 0.00 | 0.00 | 0.00 | 69 | 1019.6 |
| 20260502065300 | 37 | 319 | 0.0 | 0.0 | 0.00 | 0.00 | 0.00 | 69 | 1019.6 |
| 20260502064758 | 37 | 319 | 0.0 | 0.0 | 0.00 | 0.00 | 0.00 | 69 | 1019.6 |
| 20260502064255 | 38 | 319 | 0.0 | 0.0 | 0.00 | 0.00 | 0.00 | 68 | 1019.6 |
| 20260502063753 | 38 | 318 | 0.0 | 0.0 | 0.00 | 0.00 | 0.00 | 67 | 1019.6 |
| 20260502063251 | 38 | 319 | 0.0 | 0.0 | 0.00 | 0.00 | 0.00 | 67 | 1020.0 |
| 20260502062748 | 38 | 319 | 0.0 | 0.0 | 0.00 | 0.00 | 0.00 | 67 | 1020.0 |
| 20260502062245 | 38 | 319 | 0.0 | 0.0 | 0.00 | 0.00 | 0.00 | 66 | 1019.6 |
| 20260502061744 | 38 | 319 | 0.0 | 0.0 | 0.00 | 0.00 | 0.00 | 66 | 1019.6 |
| 20260502061242 | 38 | 320 | 0.0 | 0.0 | 0.00 | 0.00 | 0.00 | 66 | 1020.0 |
| 20260502060741 | 39 | 319 | 0.0 | 0.0 | 0.00 | 0.00 | 0.00 | 65 | 1019.6 |
| 20260502060237 | 39 | 320 | 0.0 | 0.0 | 0.00 | 0.00 | 0.00 | 65 | 1020.0 |
| 20260502055736 | 38 | 320 | 0.0 | 0.0 | 0.00 | 0.00 | 0.00 | 66 | 1020.0 |
| 20260502055233 | 38 | 320 | 0.0 | 0.0 | 0.00 | 0.00 | 0.00 | 66 | 1019.6 |
| 20260502054732 | 38 | 320 | 0.0 | 0.0 | 0.00 | 0.00 | 0.00 | 67 | 1020.0 |
| 20260502054229 | 37 | 320 | 0.0 | 0.0 | 0.00 | 0.00 | 0.00 | 67 | 1020.0 |
| 20260502053727 | 38 | 319 | 0.0 | 0.0 | 0.00 | 0.00 | 0.00 | 67 | 1020.0 |
| 20260502053224 | 38 | 319 | 0.0 | 0.0 | 0.00 | 0.00 | 0.00 | 67 | 1020.0 |
| 20260502052722 | 38 | 319 | 0.0 | 0.0 | 0.00 | 0.00 | 0.00 | 67 | 1020.0 |
| 20260502052219 | 37 | 319 | 0.0 | 0.0 | 0.00 | 0.00 | 0.00 | 67 | 1019.6 |
| 20260502051717 | 37 | 320 | 0.0 | 0.0 | 0.00 | 0.00 | 0.00 | 68 | 1019.6 |
| 20260502051215 | 38 | 319 | 0.0 | 0.0 | 0.00 | 0.00 | 0.00 | 68 | 1020.0 |
| 20260502050711 | 37 | 319 | 0.0 | 0.0 | 0.00 | 0.00 | 0.00 | 68 | 1019.6 |
| 20260502050208 | 37 | 319 | 0.0 | 0.0 | 0.00 | 0.00 | 0.00 | 69 | 1020.0 |
| 20260502045705 | 37 | 319 | 0.0 | 0.0 | 0.00 | 0.00 | 0.00 | 69 | 1020.0 |
| 20260502045202 | 37 | 320 | 0.0 | 0.0 | 0.00 | 0.00 | 0.00 | 69 | 1020.0 |
| 20260502044658 | 38 | 319 | 0.0 | 0.0 | 0.00 | 0.00 | 0.00 | 68 | 1020.0 |
| 20260502044154 | 38 | 319 | 0.0 | 0.0 | 0.00 | 0.00 | 0.00 | 68 | 1020.0 |
| 20260502043652 | 38 | 319 | 0.0 | 0.9 | 0.00 | 0.00 | 0.00 | 66 | 1020.0 |
| 20260502043150 | 39 | 319 | 0.0 | 0.0 | 0.00 | 0.00 | 0.00 | 66 | 1020.0 |
| 20260502042649 | 39 | 319 | 0.0 | 0.0 | 0.00 | 0.00 | 0.00 | 65 | 1020.0 |
| 20260502042146 | 39 | 320 | 0.0 | 0.0 | 0.00 | 0.00 | 0.00 | 67 | 1020.0 |
| 20260502041644 | 38 | 320 | 0.0 | 0.0 | 0.00 | 0.00 | 0.00 | 67 | 1020.0 |
| 20260502041141 | 38 | 320 | 0.0 | 0.0 | 0.00 | 0.00 | 0.00 | 68 | 1019.6 |
| 20260502040638 | 38 | 320 | 0.0 | 0.0 | 0.00 | 0.00 | 0.00 | 67 | 1020.0 |
| 20260502040135 | 39 | 319 | 0.0 | 0.0 | 0.00 | 0.00 | 0.00 | 67 | 1019.6 |
| 20260502035631 | 39 | 320 | 0.0 | 0.0 | 0.00 | 0.00 | 0.00 | 67 | 1020.0 |
| 20260502035128 | 39 | 320 | 0.0 | 0.0 | 0.00 | 0.00 | 0.00 | 66 | 1020.0 |
| 20260502034626 | 40 | 319 | 0.0 | 0.0 | 0.00 | 0.00 | 0.00 | 66 | 1020.0 |
| 20260502034124 | 40 | 319 | 0.0 | 0.0 | 0.00 | 0.00 | 0.00 | 64 | 1020.0 |
| 20260502033622 | 41 | 319 | 0.0 | 0.0 | 0.00 | 0.00 | 0.00 | 62 | 1020.0 |
| 20260502033119 | 41 | 319 | 0.0 | 0.0 | 0.00 | 0.00 | 0.00 | 62 | 1020.0 |
| 20260502032615 | 42 | 319 | 0.0 | 0.0 | 0.00 | 0.00 | 0.00 | 61 | 1020.0 |
| 20260502032111 | 42 | 319 | 0.0 | 0.0 | 0.00 | 0.00 | 0.00 | 60 | 1020.0 |
| 20260502031610 | 42 | 319 | 0.9 | 0.9 | 0.00 | 0.00 | 0.00 | 60 | 1020.0 |
| 20260502031107 | 42 | 319 | 0.0 | 0.0 | 0.00 | 0.00 | 0.00 | 59 | 1019.6 |
| 20260502030606 | 43 | 320 | 0.0 | 0.0 | 0.00 | 0.00 | 0.00 | 58 | 1019.6 |
| 20260502025600 | 44 | 319 | 0.0 | 0.0 | 0.00 | 0.00 | 0.00 | 55 | 1020.0 |
| 20260502025058 | 44 | 317 | 0.9 | 0.9 | 0.00 | 0.00 | 0.00 | 53 | 1019.6 |
| 20260502024556 | 45 | 318 | 0.0 | 0.0 | 0.00 | 0.00 | 0.00 | 52 | 1019.6 |
| 20260502024054 | 46 | 319 | 0.9 | 0.9 | 0.00 | 0.00 | 0.00 | 52 | 1020.0 |
| 20260502023551 | 46 | 317 | 0.9 | 0.9 | 0.00 | 0.00 | 0.00 | 52 | 1019.6 |
| 20260502023048 | 47 | 319 | 0.0 | 0.9 | 0.00 | 0.00 | 0.00 | 50 | 1019.6 |
| 20260502022545 | 47 | 321 | 2.6 | 2.6 | 0.00 | 0.00 | 0.00 | 49 | 1019.6 |
| 20260502022043 | 47 | 329 | 3.5 | 5.2 | 0.00 | 0.00 | 0.00 | 49 | 1019.6 |
| 20260502021540 | 48 | 317 | 4.3 | 4.3 | 0.00 | 0.00 | 0.00 | 49 | 1019.3 |
| 20260502021036 | 48 | 315 | 2.6 | 4.3 | 0.00 | 0.00 | 0.00 | 48 | 1019.6 |
| 20260502020534 | 48 | 315 | 0.9 | 0.9 | 0.00 | 0.00 | 0.00 | 48 | 1019.6 |
| 20260502020031 | 48 | 307 | 2.6 | 2.6 | 0.00 | 0.00 | 0.00 | 48 | 1019.3 |
| 20260502015529 | 48 | 322 | 3.5 | 4.3 | 0.00 | 0.00 | 0.00 | 47 | 1019.6 |
| 20260502015025 | 49 | 310 | 3.5 | 4.3 | 0.00 | 0.00 | 0.00 | 46 | 1019.3 |
| 20260502014522 | 49 | 327 | 4.3 | 5.2 | 0.00 | 0.00 | 0.00 | 46 | 1019.3 |
| 20260502014019 | 49 | 315 | 5.2 | 6.1 | 0.00 | 0.00 | 0.00 | 45 | 1019.6 |
| 20260502013514 | 50 | 323 | 6.1 | 7.8 | 0.00 | 0.00 | 0.00 | 45 | 1019.3 |
| 20260502013011 | 50 | 330 | 5.2 | 6.1 | 0.00 | 0.00 | 0.00 | 44 | 1019.6 |
| 20260502012508 | 50 | 330 | 5.2 | 6.1 | 0.00 | 0.00 | 0.00 | 43 | 1019.6 |
| 20260502012006 | 50 | 324 | 5.2 | 6.1 | 0.00 | 0.00 | 0.00 | 42 | 1019.3 |
| 20260502011502 | 50 | 347 | 6.1 | 7.0 | 0.00 | 0.00 | 0.00 | 43 | 1019.3 |
| 20260502010959 | 50 | 327 | 5.2 | 6.1 | 0.00 | 0.00 | 0.00 | 42 | 1019.3 |
| 20260502010456 | 51 | 338 | 5.2 | 6.1 | 0.00 | 0.00 | 0.00 | 42 | 1019.0 |
| 20260502005952 | 51 | 304 | 3.5 | 5.2 | 0.00 | 0.00 | 0.00 | 41 | 1019.0 |
| 20260502005450 | 51 | 328 | 4.3 | 4.3 | 0.00 | 0.00 | 0.00 | 42 | 1019.0 |
| 20260502004948 | 51 | 323 | 6.1 | 6.1 | 0.00 | 0.00 | 0.00 | 40 | 1019.0 |
| 20260502004443 | 51 | 319 | 6.1 | 7.0 | 0.00 | 0.00 | 0.00 | 41 | 1019.3 |
| 20260502003941 | 52 | 320 | 3.5 | 4.3 | 0.00 | 0.00 | 0.00 | 41 | 1019.0 |
| 20260502003438 | 52 | 338 | 4.3 | 5.2 | 0.00 | 0.00 | 0.00 | 41 | 1019.0 |
| 20260502002934 | 52 | 353 | 7.8 | 8.7 | 0.00 | 0.00 | 0.00 | 40 | 1019.0 |
| 20260502002431 | 52 | 343 | 2.6 | 2.6 | 0.00 | 0.00 | 0.00 | 40 | 1019.0 |
| 20260502001929 | 52 | 347 | 4.3 | 5.2 | 0.00 | 0.00 | 0.00 | 39 | 1019.0 |
| 20260502001426 | 52 | 320 | 6.1 | 8.7 | 0.00 | 0.00 | 0.00 | 39 | 1019.0 |
| 20260502000924 | 52 | 325 | 8.7 | 8.7 | 0.00 | 0.00 | 0.00 | 39 | 1019.3 |
| 20260502000424 | 53 | 343 | 1.7 | 1.7 | 0.00 | 0.00 | 0.00 | 40 | 1019.0 |
| 20260501235918 | 52 | 341 | 4.3 | 5.2 | 0.00 | 0.00 | 0.00 | 39 | 1019.0 |
| 20260501235414 | 52 | 317 | 4.3 | 4.3 | 0.00 | 0.00 | 0.00 | 39 | 1019.0 |
| 20260501234909 | 52 | 9 | 3.5 | 4.3 | 0.00 | 0.00 | 0.00 | 40 | 1019.0 |
| 20260501234406 | 52 | 2 | 7.8 | 9.6 | 0.00 | 0.00 | 0.00 | 40 | 1019.3 |
| 20260501233904 | 53 | 7 | 4.3 | 5.2 | 0.00 | 0.00 | 0.00 | 39 | 1019.0 |
| 20260501233401 | 53 | 10 | 4.3 | 5.2 | 0.00 | 0.00 | 0.00 | 40 | 1019.3 |
| 20260501232857 | 53 | 344 | 4.3 | 5.2 | 0.00 | 0.00 | 0.00 | 39 | 1019.0 |
| 20260501232355 | 52 | 15 | 2.6 | 2.6 | 0.00 | 0.00 | 0.00 | 40 | 1019.3 |
| 20260501231852 | 52 | 350 | 5.2 | 7.0 | 0.00 | 0.00 | 0.00 | 40 | 1019.3 |
| 20260501231350 | 53 | 357 | 7.8 | 9.6 | 0.00 | 0.00 | 0.00 | 39 | 1019.3 |
| 20260501230848 | 52 | 344 | 2.6 | 2.6 | 0.00 | 0.00 | 0.00 | 39 | 1019.0 |
| 20260501230347 | 52 | 48 | 3.5 | 5.2 | 0.00 | 0.00 | 0.00 | 39 | 1019.0 |
| 20260501225843 | 53 | 351 | 3.5 | 5.2 | 0.00 | 0.00 | 0.00 | 40 | 1019.0 |
| 20260501225341 | 52 | 9 | 5.2 | 7.0 | 0.00 | 0.00 | 0.00 | 39 | 1019.0 |
| 20260501224837 | 53 | 33 | 4.3 | 7.0 | 0.00 | 0.00 | 0.00 | 41 | 1019.3 |
| 20260501224335 | 53 | 23 | 2.6 | 2.6 | 0.00 | 0.00 | 0.00 | 39 | 1019.3 |
| 20260501223831 | 53 | 6 | 3.5 | 6.1 | 0.00 | 0.00 | 0.00 | 42 | 1019.3 |
| 20260501223327 | 52 | 25 | 2.6 | 4.3 | 0.00 | 0.00 | 0.00 | 42 | 1019.0 |
| 20260501222823 | 51 | 347 | 5.2 | 7.0 | 0.00 | 0.00 | 0.00 | 43 | 1019.3 |
| 20260501222320 | 52 | 0 | 6.1 | 7.8 | 0.00 | 0.00 | 0.00 | 41 | 1019.0 |
| 20260501221817 | 53 | 0 | 5.2 | 6.1 | 0.00 | 0.00 | 0.00 | 41 | 1019.0 |
| 20260501221314 | 53 | 20 | 6.1 | 8.7 | 0.00 | 0.00 | 0.00 | 41 | 1019.0 |
| 20260501220812 | 53 | 349 | 3.5 | 5.2 | 0.00 | 0.00 | 0.00 | 42 | 1019.3 |
| 20260501220309 | 53 | 56 | 5.2 | 7.0 | 0.00 | 0.00 | 0.00 | 42 | 1019.3 |
| 20260501215806 | 54 | 319 | 7.0 | 7.8 | 0.00 | 0.00 | 0.00 | 42 | 1019.0 |
| 20260501215305 | 52 | 309 | 6.1 | 7.0 | 0.00 | 0.00 | 0.00 | 41 | 1019.3 |
| 20260501214757 | 52 | 338 | 7.8 | 12.2 | 0.00 | 0.00 | 0.00 | 42 | 1019.3 |
| 20260501214253 | 52 | 340 | 7.0 | 7.8 | 0.00 | 0.00 | 0.00 | 44 | 1019.0 |
| 20260501213749 | 52 | 328 | 0.0 | 0.9 | 0.00 | 0.00 | 0.00 | 45 | 1019.3 |
| 20260501213246 | 52 | 58 | 4.3 | 5.2 | 0.00 | 0.00 | 0.00 | 44 | 1019.3 |
| 20260501212742 | 52 | 345 | 5.2 | 6.1 | 0.00 | 0.00 | 0.00 | 42 | 1019.3 |
| 20260501212238 | 50 | 61 | 1.7 | 1.7 | 0.00 | 0.00 | 0.00 | 43 | 1019.3 |
| 20260501211736 | 50 | 349 | 2.6 | 4.3 | 0.00 | 0.00 | 0.00 | 43 | 1019.3 |
| 20260501211232 | 50 | 7 | 6.1 | 7.0 | 0.00 | 0.00 | 0.00 | 45 | 1019.6 |
| 20260501210730 | 50 | 345 | 4.3 | 5.2 | 0.00 | 0.00 | 0.00 | 45 | 1019.3 |
| 20260501210226 | 50 | 0 | 6.1 | 7.8 | 0.00 | 0.00 | 0.00 | 45 | 1019.6 |
| 20260501205723 | 50 | 21 | 4.3 | 5.2 | 0.00 | 0.00 | 0.00 | 45 | 1019.6 |
| 20260501205220 | 51 | 357 | 1.7 | 2.6 | 0.00 | 0.00 | 0.00 | 44 | 1019.3 |
| 20260501204717 | 52 | 8 | 8.7 | 12.2 | 0.00 | 0.00 | 0.00 | 45 | 1019.6 |
| 20260501204213 | 52 | 353 | 5.2 | 7.8 | 0.00 | 0.00 | 0.00 | 43 | 1019.3 |
| 20260501203709 | 51 | 322 | 7.0 | 7.8 | 0.00 | 0.00 | 0.00 | 46 | 1019.6 |
| 20260501203207 | 51 | 343 | 7.8 | 9.6 | 0.00 | 0.00 | 0.00 | 45 | 1019.6 |
| 20260501202704 | 51 | 333 | 6.1 | 7.8 | 0.00 | 0.00 | 0.00 | 45 | 1019.6 |
| 20260501202201 | 50 | 315 | 1.7 | 1.7 | 0.00 | 0.00 | 0.00 | 46 | 1019.6 |
| 20260501201657 | 50 | 335 | 5.2 | 6.1 | 0.00 | 0.00 | 0.00 | 45 | 1019.6 |
| 20260501201154 | 50 | 350 | 7.0 | 7.8 | 0.00 | 0.00 | 0.00 | 50 | 1020.0 |
| 20260501200651 | 49 | 346 | 8.7 | 9.6 | 0.00 | 0.00 | 0.00 | 48 | 1019.6 |
| 20260501200149 | 49 | 2 | 7.8 | 8.7 | 0.00 | 0.00 | 0.00 | 48 | 1019.6 |
| 20260501195646 | 49 | 28 | 6.1 | 7.8 | 0.00 | 0.00 | 0.00 | 46 | 1019.6 |
| 20260501195141 | 50 | 347 | 9.6 | 13.0 | 0.00 | 0.00 | 0.00 | 48 | 1019.6 |
| 20260501194637 | 50 | 354 | 7.8 | 11.3 | 0.00 | 0.00 | 0.00 | 46 | 1020.0 |
| 20260501194133 | 49 | 45 | 4.3 | 7.8 | 0.00 | 0.00 | 0.00 | 48 | 1020.0 |
| 20260501193631 | 49 | 17 | 6.1 | 7.0 | 0.00 | 0.00 | 0.00 | 49 | 1019.6 |
| 20260501193129 | 48 | 346 | 2.6 | 4.3 | 0.00 | 0.00 | 0.00 | 50 | 1020.0 |
| 20260501192626 | 49 | 35 | 7.8 | 11.3 | 0.00 | 0.00 | 0.00 | 49 | 1019.6 |
| 20260501192123 | 49 | 357 | 7.0 | 7.8 | 0.00 | 0.00 | 0.00 | 49 | 1020.0 |
| 20260501191620 | 50 | 19 | 2.6 | 2.6 | 0.00 | 0.00 | 0.00 | 47 | 1020.0 |
| 20260501191117 | 50 | 51 | 6.1 | 7.0 | 0.00 | 0.00 | 0.00 | 48 | 1019.6 |
| 20260501190614 | 49 | 346 | 5.2 | 7.0 | 0.00 | 0.00 | 0.00 | 50 | 1019.6 |
| 20260501190109 | 49 | 351 | 7.8 | 9.6 | 0.00 | 0.00 | 0.00 | 49 | 1020.0 |
| 20260501185605 | 49 | 50 | 2.6 | 4.3 | 0.00 | 0.00 | 0.00 | 48 | 1019.6 |
| 20260501185101 | 48 | 59 | 2.6 | 2.6 | 0.00 | 0.00 | 0.00 | 49 | 1019.6 |
| 20260501184557 | 48 | 28 | 6.1 | 7.0 | 0.00 | 0.00 | 0.00 | 51 | 1019.6 |
| 20260501184052 | 48 | 337 | 10.4 | 13.9 | 0.00 | 0.00 | 0.00 | 49 | 1020.0 |
| 20260501183549 | 48 | 350 | 4.3 | 6.1 | 0.00 | 0.00 | 0.00 | 50 | 1020.0 |
| 20260501183045 | 49 | 3 | 2.6 | 4.3 | 0.00 | 0.00 | 0.00 | 48 | 1020.0 |
| 20260501182542 | 48 | 327 | 7.8 | 8.7 | 0.00 | 0.00 | 0.00 | 50 | 1020.0 |
| 20260501182039 | 48 | 337 | 6.1 | 7.0 | 0.00 | 0.00 | 0.00 | 51 | 1019.6 |
| 20260501181536 | 47 | 1 | 4.3 | 6.1 | 0.00 | 0.00 | 0.00 | 51 | 1019.6 |
| 20260501181033 | 48 | 5 | 7.0 | 7.8 | 0.00 | 0.00 | 0.00 | 51 | 1019.6 |
| 20260501180531 | 48 | 285 | 7.0 | 7.8 | 0.00 | 0.00 | 0.00 | 52 | 1019.6 |
| 20260501180027 | 48 | 10 | 6.1 | 7.8 | 0.00 | 0.00 | 0.00 | 50 | 1020.0 |
| 20260501175524 | 47 | 355 | 7.8 | 8.7 | 0.00 | 0.00 | 0.00 | 52 | 1020.0 |
| 20260501175020 | 48 | 341 | 7.8 | 7.8 | 0.00 | 0.00 | 0.00 | 51 | 1019.6 |
| 20260501174518 | 47 | 56 | 2.6 | 4.3 | 0.00 | 0.00 | 0.00 | 52 | 1019.6 |
| 20260501174015 | 48 | 352 | 1.7 | 1.7 | 0.00 | 0.00 | 0.00 | 51 | 1020.0 |
| 20260501173512 | 47 | 8 | 7.0 | 11.3 | 0.00 | 0.00 | 0.00 | 49 | 1020.0 |
| 20260501173009 | 48 | 331 | 7.8 | 8.7 | 0.00 | 0.00 | 0.00 | 51 | 1020.0 |
| 20260501172504 | 47 | 21 | 7.0 | 8.7 | 0.00 | 0.00 | 0.00 | 53 | 1020.0 |
| 20260501172000 | 48 | 77 | 4.3 | 6.1 | 0.00 | 0.00 | 0.00 | 52 | 1020.0 |
| 20260501171456 | 48 | 354 | 7.8 | 9.6 | 0.00 | 0.00 | 0.00 | 51 | 1020.0 |
| 20260501170953 | 48 | 339 | 7.8 | 9.6 | 0.00 | 0.00 | 0.00 | 53 | 1020.0 |
| 20260501170450 | 47 | 34 | 4.3 | 6.1 | 0.00 | 0.00 | 0.00 | 51 | 1019.6 |
| 20260501165947 | 46 | 353 | 6.1 | 7.8 | 0.00 | 0.00 | 0.00 | 54 | 1020.0 |
| 20260501165445 | 47 | 354 | 8.7 | 9.6 | 0.00 | 0.00 | 0.00 | 54 | 1020.0 |
| 20260501164942 | 46 | 359 | 6.1 | 7.0 | 0.00 | 0.00 | 0.00 | 54 | 1020.0 |
| 20260501164440 | 47 | 343 | 7.8 | 9.6 | 0.00 | 0.00 | 0.00 | 55 | 1020.0 |
| 20260501163937 | 47 | 342 | 8.7 | 9.6 | 0.00 | 0.00 | 0.00 | 52 | 1020.0 |
| 20260501163432 | 48 | 13 | 3.5 | 5.2 | 0.00 | 0.00 | 0.00 | 51 | 1020.0 |
| 20260501162929 | 45 | 44 | 2.6 | 6.1 | 0.00 | 0.00 | 0.00 | 58 | 1020.0 |
| 20260501162426 | 46 | 357 | 7.8 | 8.7 | 0.00 | 0.00 | 0.00 | 59 | 1020.0 |
| 20260501161923 | 46 | 0 | 5.2 | 7.0 | 0.00 | 0.00 | 0.00 | 56 | 1020.0 |
| 20260501161420 | 45 | 313 | 6.1 | 7.0 | 0.00 | 0.00 | 0.00 | 61 | 1019.6 |
| 20260501160917 | 45 | 346 | 7.0 | 8.7 | 0.00 | 0.00 | 0.00 | 60 | 1020.0 |
| 20260501160413 | 45 | 11 | 4.3 | 5.2 | 0.00 | 0.00 | 0.00 | 61 | 1020.0 |